CMB844 Details

Departure: Paya Lebar Airport (WSAP)
Arrival: Diego Garcia (FJDG)
Route: ASUNA R469 PKU N633 PIBED R212 GUDUG
Notes: USTRANSCOM CONTRACT FLIGHT


Current Weather Information
WSAP 212200Z 01001KT 9999 FEW018 BKN300 28/25 Q1010
FJDG 212155Z 12007KT 9999 FEW020 SCT250 28/26 A2984 RMK SLP102 T02760255